LGHI/JKH METAR and TAF weather

Enter ICAO airport designator
Station Type Date Time Source
LGHI METAR 2020/07/06 07:50 UTC NOAA

LGHI 060750Z 01011KT CAVOK 28/20 Q1000


Station Type Date Time Source
LGHI Decoded METAR 2020/07/06 07:50 UTC NOAA

Chios Airport , Greece (LGHI) 38-20N 026-08E 4M
Jul 06, 2020 - 03:50 AM EDT / 2020.07.06 0750 UTC
Wind: from the N (010 degrees) at 13 MPH (11 KT):0
Visibility: greater than 7 mile(s):0
Temperature: 82 F (28 C)
Dew Point: 68 F (20 C)
Relative Humidity: 61%
Pressure (altimeter): 29.53 in. Hg (1000 hPa)
ob: LGHI 060750Z 01011KT CAVOK 28/20 Q1000
cycle: 8

Station Type Date Time Source
LGHI TAF 2012/09/21 03:06 UTC NOAA

TAF TAF LGHI 210200Z 2103/2115 VRB05KT 9999 SCT020 PROB30
TEMPO 2103/2106 7000 RA SCT018 BKN030
BECMG 2103/2105 30018KT

Example: see airport list